Time;durP1;ratioP1;P1;durP2;ratioP2;P2;SDS_P1;SDS_P2;PMS_P1;PMS_P2;Temp;Humidity;BMP_temperature;BMP_pressure;BME280_temperature;BME280_humidity;BME280_pressure;Samples;Min_cycle;Max_cycle;Signal;HPM_P1;HPM_P2
2023/01/31 00:01:29;;;;;;;10.82;5.82;;;2.30;83.10;;;;;;4957267;28;20026;-77
2023/01/31 00:03:57;;;;;;;14.48;5.70;;;2.30;82.80;;;;;;4957164;28;20023;-77
2023/01/31 00:06:29;;;;;;;13.77;5.82;;;2.30;82.90;;;;;;4956754;28;20133;-77
2023/01/31 00:08:57;;;;;;;13.82;5.63;;;2.20;82.70;;;;;;4956997;28;20023;-77
2023/01/31 00:11:25;;;;;;;16.13;5.22;;;2.20;82.60;;;;;;4957179;28;20055;-76
2023/01/31 00:13:51;;;;;;;14.85;5.28;;;2.30;82.40;;;;;;4957603;28;20138;-77
2023/01/31 00:16:18;;;;;;;15.60;5.15;;;2.30;82.10;;;;;;4957160;28;20472;-76
2023/01/31 00:18:44;;;;;;;9.48;4.60;;;2.30;82.20;;;;;;4957153;28;20121;-76
2023/01/31 00:21:14;;;;;;;15.10;5.55;;;2.30;82.30;;;;;;4956723;28;20023;-76
2023/01/31 00:23:40;;;;;;;15.82;4.85;;;2.30;82.20;;;;;;4957289;28;20499;-76
2023/01/31 00:26:14;;;;;;;16.48;5.28;;;2.20;82.20;;;;;;4956749;28;20055;-76
2023/01/31 00:28:41;;;;;;;15.85;4.85;;;2.20;82.30;;;;;;4974634;28;20019;-76
2023/01/31 00:31:07;;;;;;;17.23;5.43;;;2.20;83.10;;;;;;4956902;28;20027;-76
2023/01/31 00:33:37;;;;;;;12.75;4.50;;;2.10;82.60;;;;;;4956749;28;20019;-77
2023/01/31 00:36:04;;;;;;;14.52;5.00;;;2.00;83.00;;;;;;4956788;28;20522;-76
2023/01/31 00:38:30;;;;;;;10.68;5.47;;;2.00;83.20;;;;;;4956519;28;20035;-76
2023/01/31 00:40:56;;;;;;;11.45;4.97;;;2.00;83.20;;;;;;4940896;28;20082;-76
2023/01/31 00:43:21;;;;;;;14.90;4.93;;;2.00;83.20;;;;;;4956638;28;20026;-76
2023/01/31 00:45:47;;;;;;;15.73;4.93;;;2.00;83.30;;;;;;4956821;28;20377;-77
2023/01/31 00:48:13;;;;;;;13.75;5.18;;;1.90;83.30;;;;;;4956715;28;20025;-76
2023/01/31 00:50:38;;;;;;;18.83;5.43;;;2.00;83.30;;;;;;4956486;28;20447;-76
2023/01/31 00:53:04;;;;;;;14.48;6.20;;;2.00;83.20;;;;;;4956239;28;20064;-76
2023/01/31 00:55:30;;;;;;;13.30;5.32;;;1.90;84.00;;;;;;4956665;28;20035;-76
2023/01/31 00:57:55;;;;;;;9.23;4.97;;;1.90;83.40;;;;;;4956749;28;20030;-76
2023/01/31 01:00:21;;;;;;;15.90;6.25;;;1.80;83.50;;;;;;4956610;28;20031;-77
2023/01/31 01:02:46;;;;;;;14.45;5.80;;;1.80;83.60;;;;;;4956234;28;20129;-77
2023/01/31 01:05:12;;;;;;;17.45;5.60;;;1.80;83.60;;;;;;4955937;28;20089;-76
2023/01/31 01:07:38;;;;;;;15.15;4.00;;;1.80;83.50;;;;;;4956238;28;20563;-76
2023/01/31 01:10:04;;;;;;;9.45;4.57;;;1.80;83.40;;;;;;4956304;28;20039;-77
2023/01/31 01:12:30;;;;;;;10.88;4.95;;;1.80;83.30;;;;;;4956533;28;20034;-77
2023/01/31 01:14:55;;;;;;;22.65;5.18;;;1.70;83.30;;;;;;4956508;28;20018;-77
2023/01/31 01:17:21;;;;;;;16.15;5.25;;;1.80;83.20;;;;;;4956373;28;20023;-77
2023/01/31 01:19:47;;;;;;;9.98;4.75;;;1.70;83.30;;;;;;4956641;28;20093;-77
2023/01/31 01:22:14;;;;;;;13.38;5.07;;;1.70;83.40;;;;;;4976887;28;20046;-77
2023/01/31 01:24:41;;;;;;;11.27;4.70;;;1.60;83.40;;;;;;4959446;28;20127;-77
2023/01/31 01:27:07;;;;;;;12.75;4.68;;;1.60;83.40;;;;;;4959565;28;20444;-77
2023/01/31 01:29:34;;;;;;;12.05;4.43;;;1.60;83.50;;;;;;4959343;28;20027;-77
2023/01/31 01:32:00;;;;;;;9.98;4.38;;;1.60;83.60;;;;;;4959607;28;20113;-76
2023/01/31 01:34:25;;;;;;;11.52;4.45;;;1.50;83.80;;;;;;4959552;28;20050;-79
2023/01/31 01:36:51;;;;;;;9.25;4.50;;;1.50;83.80;;;;;;4959097;28;20035;-77
2023/01/31 01:39:17;;;;;;;11.77;3.75;;;1.50;83.90;;;;;;4959480;28;20030;-77
2023/01/31 01:41:44;;;;;;;13.15;3.92;;;1.50;83.80;;;;;;4959649;28;20035;-77
2023/01/31 01:44:46;;;;;;;13.10;4.57;;;1.50;83.70;;;;;;4959482;28;20070;-76
2023/01/31 01:47:33;;;;;;;9.65;3.90;;;1.50;83.50;;;;;;4959202;28;20484;-76
2023/01/31 01:50:06;;;;;;;12.43;4.05;;;1.50;83.40;;;;;;4959320;28;20073;-76
2023/01/31 01:52:36;;;;;;;10.23;4.38;;;1.40;83.40;;;;;;4959519;28;20027;-77
2023/01/31 01:55:11;;;;;;;14.05;4.70;;;1.40;83.50;;;;;;4958770;28;20075;-77
2023/01/31 01:57:39;;;;;;;;;;;1.40;83.50;;;;;;4959299;28;20026;-76
2023/01/31 02:00:04;;;;;;;13.02;3.92;;;1.40;83.50;;;;;;4958994;28;19914;-77
2023/01/31 02:02:30;;;;;;;11.65;4.30;;;1.30;83.60;;;;;;4959083;28;20113;-77
2023/01/31 02:04:56;;;;;;;12.13;4.75;;;1.40;83.70;;;;;;4959136;28;20035;-77
2023/01/31 02:07:22;;;;;;;13.80;5.68;;;1.30;83.80;;;;;;4958999;28;20432;-77
2023/01/31 02:10:01;;;;;;;11.43;4.50;;;1.40;83.80;;;;;;4958975;28;20026;-76
2023/01/31 02:12:29;;;;;;;10.10;4.50;;;1.40;83.80;;;;;;4958801;28;20058;-76
2023/01/31 02:14:54;;;;;;;11.02;4.45;;;1.40;83.80;;;;;;4958798;28;20479;-76
2023/01/31 02:17:20;;;;;;;19.25;5.80;;;1.40;83.70;;;;;;4959015;28;20056;-76
2023/01/31 02:20:04;;;;;;;12.00;4.93;;;1.30;83.70;;;;;;4958892;28;20023;-76
2023/01/31 02:22:43;;;;;;;14.05;4.57;;;1.40;83.60;;;;;;4958882;28;20056;-77
2023/01/31 02:25:21;;;;;;;13.27;5.10;;;1.30;83.40;;;;;;4977594;28;20058;-78
2023/01/31 02:28:11;;;;;;;17.63;5.63;;;1.30;83.50;;;;;;4965887;28;20058;-77
2023/01/31 02:31:07;;;;;;;16.90;5.63;;;1.30;83.70;;;;;;4958492;28;20488;-77
2023/01/31 02:33:51;;;;;;;16.95;6.18;;;1.30;83.80;;;;;;4958495;28;20030;-77
2023/01/31 02:36:52;;;;;;;12.30;4.55;;;1.30;83.80;;;;;;4952535;28;20387;-78
2023/01/31 02:39:27;;;;;;;11.65;4.88;;;1.30;83.80;;;;;;4925468;28;20031;-76
2023/01/31 02:42:04;;;;;;;14.63;5.57;;;1.30;84.00;;;;;;4958508;28;20034;-78
2023/01/31 02:45:14;;;;;;;19.30;6.20;;;1.30;83.90;;;;;;4958151;28;20087;-78
2023/01/31 02:48:06;;;;;;;16.92;4.97;;;1.30;84.00;;;;;;4936846;28;20037;-78
2023/01/31 02:50:46;;;;;;;15.73;4.97;;;1.30;84.70;;;;;;4957845;28;20062;-76
2023/01/31 02:53:23;;;;;;;14.45;5.50;;;1.20;83.80;;;;;;4957828;28;20499;-78
2023/01/31 02:56:18;;;;;;;15.50;5.85;;;1.20;83.70;;;;;;4958264;28;20031;-78
2023/01/31 02:59:09;;;;;;;17.85;5.47;;;1.20;83.70;;;;;;4958278;28;20550;-78
2023/01/31 03:01:38;;;;;;;19.10;6.05;;;1.20;83.70;;;;;;4958032;28;20035;-76
2023/01/31 03:04:10;;;;;;;16.17;5.90;;;1.20;83.70;;;;;;4975187;28;20026;-77
2023/01/31 03:06:35;;;;;;;15.02;5.38;;;1.20;83.80;;;;;;4957760;28;20042;-76
2023/01/31 03:09:23;;;;;;;16.38;5.75;;;1.20;83.70;;;;;;4958005;28;20019;-76
2023/01/31 03:12:17;;;;;;;15.80;6.43;;;1.20;83.60;;;;;;4957742;28;20029;-78
2023/01/31 03:15:16;;;;;;;16.42;5.57;;;1.20;84.00;;;;;;4974854;28;20030;-76
2023/01/31 03:18:05;;;;;;;13.77;5.68;;;1.30;84.10;;;;;;4957477;28;20077;-76
2023/01/31 03:20:54;;;;;;;15.07;5.97;;;1.40;84.00;;;;;;4957404;28;20462;-77
2023/01/31 03:23:23;;;;;;;14.50;6.15;;;1.40;83.80;;;;;;4957552;28;20498;-77
2023/01/31 03:25:51;;;;;;;17.65;7.07;;;1.40;84.00;;;;;;4958189;28;20055;-76
2023/01/31 03:28:22;;;;;;;17.48;6.75;;;1.40;84.10;;;;;;4959168;28;20027;-77
2023/01/31 03:30:54;;;;;;;16.10;7.00;;;1.40;84.10;;;;;;4958928;28;20074;-77
2023/01/31 03:33:29;;;;;;;16.27;6.50;;;1.50;84.30;;;;;;4957407;28;20090;-78
2023/01/31 03:36:36;;;;;;;13.45;6.15;;;1.60;84.10;;;;;;4957010;28;20039;-77
2023/01/31 03:39:15;;;;;;;19.63;6.32;;;1.60;84.10;;;;;;4944167;28;20023;-77
2023/01/31 03:41:58;;;;;;;16.35;6.28;;;1.60;83.90;;;;;;4957533;28;20025;-76
2023/01/31 03:44:31;;;;;;;16.65;6.18;;;1.70;84.10;;;;;;4956877;28;20023;-77
2023/01/31 03:47:15;;;;;;;16.88;6.40;;;1.60;83.90;;;;;;4957175;28;20061;-77
2023/01/31 03:49:43;;;;;;;18.98;6.72;;;1.70;83.90;;;;;;4957254;28;20027;-77
2023/01/31 03:52:11;;;;;;;15.35;6.43;;;1.70;83.80;;;;;;4957352;28;20023;-78
2023/01/31 03:54:44;;;;;;;17.13;7.15;;;1.60;83.70;;;;;;4956549;28;20027;-77
2023/01/31 03:57:24;;;;;;;23.25;7.15;;;1.60;83.60;;;;;;4957368;28;20361;-77
2023/01/31 03:59:54;;;;;;;21.02;6.70;;;1.50;84.10;;;;;;4957174;28;20038;-76
2023/01/31 04:02:24;;;;;;;14.93;6.65;;;1.50;84.40;;;;;;4940720;28;20055;-77
2023/01/31 04:04:55;;;;;;;19.02;7.00;;;1.40;84.50;;;;;;4956913;28;20053;-76
2023/01/31 04:07:22;;;;;;;16.00;6.82;;;1.50;84.60;;;;;;4956964;28;20030;-77
2023/01/31 04:09:47;;;;;;;22.42;7.85;;;1.50;84.40;;;;;;4925474;28;20033;-77
2023/01/31 04:12:14;;;;;;;15.35;7.18;;;1.50;84.60;;;;;;4957015;28;20031;-76
2023/01/31 04:14:42;;;;;;;20.38;8.90;;;1.50;84.60;;;;;;4957161;28;20031;-77
2023/01/31 04:17:08;;;;;;;19.20;7.75;;;1.50;84.80;;;;;;4956900;28;20031;-77
2023/01/31 04:19:33;;;;;;;20.48;7.50;;;1.50;84.90;;;;;;4962346;28;20035;-76
2023/01/31 04:21:59;;;;;;;16.88;7.40;;;1.50;84.80;;;;;;4976694;28;20023;-77
2023/01/31 04:24:24;;;;;;;24.95;7.60;;;1.50;84.50;;;;;;4956856;28;20022;-76
2023/01/31 04:26:50;;;;;;;22.33;7.22;;;1.50;84.40;;;;;;4956816;28;20061;-76
2023/01/31 04:29:16;;;;;;;17.30;6.75;;;1.60;84.40;;;;;;4956693;28;20082;-76
2023/01/31 04:31:41;;;;;;;19.02;7.40;;;1.50;84.10;;;;;;4956757;28;20042;-76
2023/01/31 04:34:09;;;;;;;17.60;7.22;;;1.50;83.80;;;;;;4957325;28;20518;-76
2023/01/31 04:36:34;;;;;;;20.42;7.43;;;1.60;83.70;;;;;;4956772;28;20031;-76
2023/01/31 04:39:00;;;;;;;17.25;6.50;;;1.60;83.50;;;;;;4956650;28;20448;-76
2023/01/31 04:41:26;;;;;;;15.52;7.05;;;1.60;83.30;;;;;;4956617;28;20487;-76
2023/01/31 04:43:51;;;;;;;22.92;9.68;;;1.70;83.20;;;;;;4956665;28;20026;-76
2023/01/31 04:46:17;;;;;;;19.08;7.40;;;1.70;83.10;;;;;;4957311;28;20039;-77
2023/01/31 04:48:43;;;;;;;17.27;7.00;;;1.70;82.50;;;;;;4956378;28;20373;-76
2023/01/31 04:51:09;;;;;;;13.43;6.72;;;1.80;82.50;;;;;;4956805;28;20027;-76
2023/01/31 04:53:34;;;;;;;22.15;6.85;;;1.80;82.30;;;;;;4956685;28;20023;-76
2023/01/31 04:56:02;;;;;;;16.10;6.40;;;1.90;82.00;;;;;;4960304;28;20067;-76
2023/01/31 04:58:28;;;;;;;15.70;6.70;;;1.90;81.90;;;;;;4960022;28;20022;-76
2023/01/31 05:00:54;;;;;;;16.55;6.15;;;1.90;81.60;;;;;;4959963;28;20042;-77
2023/01/31 05:03:20;;;;;;;19.25;6.88;;;1.90;81.60;;;;;;4960037;28;20411;-75
2023/01/31 05:05:49;;;;;;;17.02;6.53;;;1.90;81.30;;;;;;4959803;28;20050;-75
2023/01/31 05:08:14;;;;;;;17.42;5.78;;;1.90;81.40;;;;;;4959923;28;20034;-76
2023/01/31 05:10:41;;;;;;;16.48;6.68;;;1.90;81.20;;;;;;4959900;28;20060;-75
2023/01/31 05:13:07;;;;;;;22.80;6.53;;;2.00;81.10;;;;;;4959904;28;20023;-75
2023/01/31 05:15:33;;;;;;;17.70;6.80;;;2.00;81.00;;;;;;4943502;28;20031;-75
2023/01/31 05:18:02;;;;;;;17.88;7.03;;;2.00;81.00;;;;;;4959959;28;20472;-75
2023/01/31 05:20:33;;;;;;;12.73;5.70;;;2.00;81.10;;;;;;4959715;28;20046;-74
2023/01/31 05:23:00;;;;;;;19.33;5.55;;;2.00;81.10;;;;;;4955940;28;20468;-75
2023/01/31 05:25:26;;;;;;;12.02;5.90;;;2.00;81.20;;;;;;4959331;28;20034;-75
2023/01/31 05:27:52;;;;;;;14.65;5.22;;;2.10;81.30;;;;;;4959527;28;20543;-75
2023/01/31 05:30:18;;;;;;;15.55;5.40;;;2.10;81.20;;;;;;4959400;28;20023;-77
2023/01/31 05:32:45;;;;;;;16.17;5.28;;;2.10;81.00;;;;;;4959739;28;20027;-76
2023/01/31 05:35:12;;;;;;;17.20;6.35;;;2.20;80.80;;;;;;4976702;28;20039;-77
2023/01/31 05:37:41;;;;;;;16.65;5.80;;;2.20;80.80;;;;;;4959543;28;20034;-77
2023/01/31 05:40:12;;;;;;;15.95;5.72;;;2.30;80.80;;;;;;4959540;28;20027;-78
2023/01/31 05:42:37;;;;;;;15.18;5.40;;;2.30;80.70;;;;;;4959171;28;20146;-77
2023/01/31 05:45:04;;;;;;;13.23;6.18;;;2.20;80.70;;;;;;4959206;28;20452;-77
2023/01/31 05:47:30;;;;;;;15.77;6.38;;;2.20;80.70;;;;;;4959283;28;20045;-77
2023/01/31 05:49:55;;;;;;;18.67;7.10;;;2.20;80.80;;;;;;4958949;28;20031;-77
2023/01/31 05:52:21;;;;;;;16.30;7.07;;;2.30;80.30;;;;;;4959003;28;20027;-77
2023/01/31 05:54:46;;;;;;;11.15;5.35;;;2.20;80.30;;;;;;4959294;28;20023;-76
2023/01/31 05:57:14;;;;;;;19.65;6.45;;;2.30;80.10;;;;;;4959611;28;20062;-77
2023/01/31 05:59:39;;;;;;;16.13;6.15;;;2.30;80.10;;;;;;4960736;28;20030;-79
2023/01/31 06:02:05;;;;;;;19.38;6.90;;;2.30;79.90;;;;;;4959489;28;20546;-78
2023/01/31 06:04:30;;;;;;;14.98;6.97;;;2.30;79.70;;;;;;4959437;28;20057;-79
2023/01/31 06:06:56;;;;;;;17.55;5.97;;;2.30;79.30;;;;;;4958913;28;20027;-78
2023/01/31 06:09:22;;;;;;;15.25;6.07;;;2.20;79.20;;;;;;4959096;28;20034;-79
2023/01/31 06:11:47;;;;;;;18.63;6.55;;;2.20;79.30;;;;;;4965215;28;20034;-79
2023/01/31 06:14:13;;;;;;;15.85;6.18;;;2.30;79.50;;;;;;4959129;28;20169;-78
2023/01/31 06:16:40;;;;;;;14.57;5.78;;;2.30;79.50;;;;;;4958992;28;20035;-78
2023/01/31 06:19:05;;;;;;;14.40;6.38;;;2.30;79.10;;;;;;4958388;28;20042;-79
2023/01/31 06:21:31;;;;;;;19.13;6.05;;;2.30;79.20;;;;;;4958991;28;20026;-79
2023/01/31 06:23:56;;;;;;;23.38;7.03;;;2.30;78.90;;;;;;4958653;28;20395;-77
2023/01/31 06:26:22;;;;;;;16.88;6.35;;;2.30;78.60;;;;;;4958670;28;20047;-76
2023/01/31 06:28:49;;;;;;;19.65;6.32;;;2.30;78.50;;;;;;4958327;28;20361;-77
2023/01/31 06:31:15;;;;;;;15.85;6.30;;;2.40;78.30;;;;;;4958102;28;20113;-77
2023/01/31 06:33:40;;;;;;;17.00;6.40;;;2.30;79.00;;;;;;4967479;28;20521;-76
2023/01/31 06:36:07;;;;;;;18.40;5.50;;;2.30;78.40;;;;;;4968837;28;20510;-77
2023/01/31 06:38:32;;;;;;;20.17;6.75;;;2.30;78.40;;;;;;4958331;28;20023;-77
2023/01/31 06:40:58;;;;;;;18.05;6.68;;;2.40;78.30;;;;;;4958224;28;20039;-76
2023/01/31 06:43:25;;;;;;;15.88;6.25;;;2.40;78.10;;;;;;4958663;28;20026;-76
2023/01/31 06:45:50;;;;;;;19.42;5.65;;;2.40;77.80;;;;;;4958121;28;20066;-77
2023/01/31 06:48:16;;;;;;;13.77;6.35;;;2.40;77.60;;;;;;4958315;28;20051;-76
2023/01/31 06:50:43;;;;;;;17.15;6.70;;;2.30;77.80;;;;;;4957982;28;20031;-76
2023/01/31 06:53:08;;;;;;;22.80;8.65;;;2.40;77.90;;;;;;4941738;28;20046;-78
2023/01/31 06:55:35;;;;;;;18.55;6.88;;;2.40;77.80;;;;;;4957788;28;20035;-76
2023/01/31 06:58:01;;;;;;;23.63;7.78;;;2.40;77.70;;;;;;4957549;28;20019;-76
2023/01/31 07:00:26;;;;;;;19.35;6.88;;;2.40;77.60;;;;;;4957298;28;20030;-76
2023/01/31 07:02:52;;;;;;;17.17;6.82;;;2.40;77.80;;;;;;4957039;28;20436;-76
2023/01/31 07:05:19;;;;;;;21.00;7.15;;;2.40;77.90;;;;;;4957656;28;20081;-77
2023/01/31 07:07:46;;;;;;;16.95;6.13;;;2.40;77.80;;;;;;4974667;28;20552;-77
2023/01/31 07:10:12;;;;;;;15.07;6.13;;;2.40;77.40;;;;;;4957521;28;20034;-77
2023/01/31 07:12:39;;;;;;;24.17;6.75;;;2.40;77.40;;;;;;4957364;28;20035;-77
2023/01/31 07:15:05;;;;;;;17.75;6.07;;;2.40;77.50;;;;;;4957580;28;20035;-77
2023/01/31 07:17:32;;;;;;;20.42;6.38;;;2.40;77.60;;;;;;4957348;28;20472;-77
2023/01/31 07:19:57;;;;;;;16.20;6.68;;;2.40;78.40;;;;;;4957221;28;20053;-78
2023/01/31 07:22:23;;;;;;;19.48;6.72;;;2.50;77.90;;;;;;4957080;28;20515;-77
2023/01/31 07:24:49;;;;;;;12.85;6.75;;;2.50;78.00;;;;;;4974536;28;20042;-77
2023/01/31 07:27:16;;;;;;;18.55;7.65;;;2.50;78.10;;;;;;4973499;28;20054;-77
2023/01/31 07:29:42;;;;;;;19.00;7.05;;;2.60;78.00;;;;;;4956707;28;20037;-78
2023/01/31 07:32:09;;;;;;;24.10;6.93;;;2.60;77.60;;;;;;4941618;28;20089;-77
2023/01/31 07:34:35;;;;;;;23.67;9.82;;;2.60;77.40;;;;;;4941288;28;20101;-78
2023/01/31 07:37:00;;;;;;;26.75;9.77;;;2.60;77.50;;;;;;4956495;28;20026;-77
2023/01/31 07:39:27;;;;;;;22.23;9.05;;;2.60;77.60;;;;;;4956378;28;20026;-77
2023/01/31 07:41:53;;;;;;;22.63;9.20;;;2.60;77.80;;;;;;4974139;28;20049;-77
2023/01/31 07:44:18;;;;;;;25.15;10.27;;;2.70;77.90;;;;;;4956894;28;20027;-77
2023/01/31 07:46:45;;;;;;;19.13;7.85;;;2.70;77.80;;;;;;4941167;28;20137;-78
2023/01/31 07:49:11;;;;;;;21.55;7.18;;;2.60;76.30;;;;;;4961180;28;20113;-77
2023/01/31 07:51:40;;;;;;;19.20;6.18;;;2.60;76.20;;;;;;4976109;28;20072;-77
2023/01/31 07:54:23;;;;;;;14.77;4.82;;;2.70;75.60;;;;;;4977561;28;20035;-77
2023/01/31 07:56:49;;;;;;;14.07;4.35;;;2.70;74.70;;;;;;4993529;28;20026;-77
2023/01/31 07:59:16;;;;;;;14.63;4.88;;;2.70;73.00;;;;;;4959682;28;20117;-77
2023/01/31 08:04:25;;;;;;;14.93;5.20;;;2.80;72.60;;;;;;4993107;28;20064;-77
2023/01/31 08:06:54;;;;;;;15.15;5.22;;;2.80;71.10;;;;;;4975461;28;20066;-77
2023/01/31 08:09:19;;;;;;;16.48;5.63;;;2.70;70.60;;;;;;4976168;28;20026;-79
2023/01/31 08:11:45;;;;;;;23.50;5.00;;;2.70;70.80;;;;;;4975979;28;20032;-78
2023/01/31 08:14:10;;;;;;;18.85;5.00;;;2.90;78.30;;;;;;4975587;28;20053;-76
2023/01/31 08:16:37;;;;;;;13.68;5.25;;;3.50;80.50;;;;;;4975880;28;20027;-76
2023/01/31 08:19:03;;;;;;;16.42;4.50;;;3.90;75.50;;;;;;4975319;28;20030;-75
2023/01/31 08:21:29;;;;;;;15.90;4.28;;;4.40;73.20;;;;;;4975961;28;20127;-76
2023/01/31 08:23:54;;;;;;;14.00;4.30;;;4.70;69.40;;;;;;4975657;28;20441;-77
2023/01/31 08:26:21;;;;;;;15.10;5.03;;;5.00;68.30;;;;;;4975159;28;20368;-76
2023/01/31 08:28:48;;;;;;;12.07;4.70;;;5.20;66.50;;;;;;4976141;28;20365;-76
2023/01/31 08:31:20;;;;;;;15.43;4.45;;;5.40;63.60;;;;;;4979280;28;20031;-76
2023/01/31 08:33:46;;;;;;;12.90;3.22;;;5.30;59.60;;;;;;4996941;28;20113;-76
2023/01/31 08:36:16;;;;;;;13.98;3.35;;;5.30;60.90;;;;;;4979722;28;20489;-77
2023/01/31 08:38:43;;;;;;;16.02;4.85;;;5.30;59.60;;;;;;4979785;28;20061;-76
2023/01/31 08:41:09;;;;;;;17.55;5.82;;;5.30;60.70;;;;;;4979736;28;20025;-76
2023/01/31 08:43:36;;;;;;;16.27;4.55;;;5.40;58.60;;;;;;4979766;28;20467;-78
2023/01/31 08:46:03;;;;;;;11.18;4.47;;;5.30;57.70;;;;;;4999883;28;20026;-77
2023/01/31 08:48:30;;;;;;;20.95;5.07;;;5.10;57.90;;;;;;4982865;28;20030;-78
2023/01/31 08:51:00;;;;;;;14.80;4.97;;;4.80;59.10;;;;;;4979728;28;20022;-78
2023/01/31 08:53:25;;;;;;;12.82;4.20;;;4.70;59.60;;;;;;4979252;28;20482;-78
2023/01/31 08:55:51;;;;;;;15.02;4.55;;;4.70;59.60;;;;;;4979362;28;20030;-78
2023/01/31 08:58:16;;;;;;;11.98;4.22;;;4.80;59.30;;;;;;4978842;28;20026;-78
2023/01/31 09:00:42;;;;;;;7.65;3.05;;;4.70;59.30;;;;;;4979650;28;20387;-79
2023/01/31 09:03:15;;;;;;;10.38;3.90;;;4.80;58.60;;;;;;4979077;28;20014;-79
2023/01/31 09:05:41;;;;;;;16.85;4.35;;;4.80;58.30;;;;;;4979400;28;20080;-79
2023/01/31 09:08:06;;;;;;;11.50;3.35;;;4.80;58.90;;;;;;4979238;28;20117;-79
2023/01/31 09:10:32;;;;;;;10.35;2.90;;;4.80;59.00;;;;;;4978990;28;20026;-79
2023/01/31 09:12:59;;;;;;;12.15;3.35;;;4.90;58.20;;;;;;4979106;28;20022;-79
2023/01/31 09:15:25;;;;;;;10.80;3.42;;;4.70;58.60;;;;;;4979383;28;20045;-80
2023/01/31 09:17:51;;;;;;;14.68;3.40;;;4.70;58.80;;;;;;4996668;28;20038;-78
2023/01/31 09:20:17;;;;;;;11.43;3.05;;;4.70;58.80;;;;;;4979179;28;20018;-79
2023/01/31 09:22:43;;;;;;;11.02;3.00;;;4.80;58.70;;;;;;4979087;28;20030;-79
2023/01/31 09:25:09;;;;;;;10.52;2.70;;;4.90;57.80;;;;;;4983335;28;20075;-78
2023/01/31 09:27:37;;;;;;;11.82;3.78;;;5.00;57.10;;;;;;4959120;28;20046;-79
2023/01/31 09:30:05;;;;;;;7.00;2.88;;;5.00;57.30;;;;;;4959363;28;20042;-79
2023/01/31 09:32:31;;;;;;;9.02;2.85;;;5.00;57.70;;;;;;4943421;28;20046;-79
2023/01/31 09:34:57;;;;;;;19.67;3.25;;;5.10;57.90;;;;;;4959762;28;20038;-76
2023/01/31 09:37:23;;;;;;;17.60;3.30;;;5.00;57.90;;;;;;4959547;28;20496;-78
2023/01/31 09:39:49;;;;;;;11.75;3.58;;;4.80;58.10;;;;;;4959090;28;20161;-76
2023/01/31 09:42:35;;;;;;;10.32;2.63;;;4.60;58.80;;;;;;4958244;28;20027;-76
2023/01/31 09:45:11;;;;;;;7.30;2.88;;;4.60;58.70;;;;;;4959257;28;20062;-76
2023/01/31 09:47:41;;;;;;;13.40;4.32;;;4.80;58.80;;;;;;4958806;28;20122;-76
2023/01/31 09:50:17;;;;;;;11.70;3.47;;;5.00;58.70;;;;;;4958980;28;20541;-76
2023/01/31 09:52:44;;;;;;;12.95;2.95;;;5.00;57.60;;;;;;4958678;28;20030;-74
2023/01/31 09:55:21;;;;;;;12.52;2.65;;;4.80;57.60;;;;;;4958883;28;20037;-77
2023/01/31 09:57:53;;;;;;;9.05;2.83;;;4.70;58.30;;;;;;4958624;28;20035;-74
2023/01/31 10:00:46;;;;;;;10.35;3.15;;;4.50;58.20;;;;;;4976137;28;20031;-75
2023/01/31 10:03:54;;;;;;;8.90;2.53;;;4.40;57.20;;;;;;4958584;28;20027;-75
2023/01/31 10:06:35;;;;;;;13.40;3.25;;;4.40;58.30;;;;;;4914197;28;20066;-76
2023/01/31 10:09:13;;;;;;;13.07;3.22;;;4.50;59.50;;;;;;4958681;28;20026;-73
2023/01/31 10:11:46;;;;;;;10.48;2.95;;;4.50;58.80;;;;;;4958622;28;20114;-73
2023/01/31 10:14:32;;;;;;;15.93;2.92;;;4.60;58.70;;;;;;4976023;28;20436;-75
2023/01/31 10:17:16;;;;;;;;;;;4.70;57.90;;;;;;4958386;28;20098;-74
2023/01/31 10:19:57;;;;;;;13.07;3.53;;;4.70;56.50;;;;;;4959105;28;19910;-74
2023/01/31 10:22:44;;;;;;;9.73;2.90;;;4.70;56.20;;;;;;4970781;28;20027;-74
2023/01/31 10:25:25;;;;;;;13.63;2.88;;;4.80;57.20;;;;;;4959266;28;20488;-75
2023/01/31 10:28:07;;;;;;;12.07;2.92;;;4.90;57.20;;;;;;4958563;28;20522;-74
2023/01/31 10:30:50;;;;;;;12.32;2.83;;;5.00;56.70;;;;;;4975818;28;20034;-75
2023/01/31 10:33:27;;;;;;;12.90;2.42;;;4.90;58.70;;;;;;4963694;28;20022;-78
2023/01/31 10:35:56;;;;;;;8.85;3.25;;;5.00;57.10;;;;;;4958368;28;20038;-75
2023/01/31 10:38:28;;;;;;;10.23;3.45;;;5.00;56.30;;;;;;4975927;28;20019;-74
2023/01/31 10:41:13;;;;;;;11.57;2.42;;;5.00;56.60;;;;;;4958535;28;20081;-77
2023/01/31 10:43:48;;;;;;;7.50;2.65;;;5.00;56.70;;;;;;4963033;28;20054;-77
2023/01/31 10:46:14;;;;;;;19.02;3.42;;;5.10;56.70;;;;;;4958284;28;20480;-74
2023/01/31 10:48:43;;;;;;;11.07;2.55;;;5.20;55.80;;;;;;4959576;28;20126;-75
2023/01/31 10:51:30;;;;;;;11.70;2.90;;;5.30;54.50;;;;;;4960940;28;20031;-76
2023/01/31 10:54:32;;;;;;;11.63;2.13;;;5.30;53.20;;;;;;4958038;28;20118;-76
2023/01/31 10:56:59;;;;;;;7.32;2.35;;;5.20;54.10;;;;;;4975220;28;20029;-77
2023/01/31 10:59:30;;;;;;;10.57;2.55;;;4.80;55.90;;;;;;4957687;28;20030;-77
2023/01/31 11:01:57;;;;;;;9.30;2.40;;;5.00;55.60;;;;;;4957571;28;20131;-77
2023/01/31 11:04:35;;;;;;;13.23;2.88;;;5.30;54.70;;;;;;4975023;28;20027;-78
2023/01/31 11:07:01;;;;;;;9.52;2.40;;;5.70;53.50;;;;;;4973739;28;20117;-77
2023/01/31 11:09:33;;;;;;;9.70;2.17;;;6.00;52.60;;;;;;4957622;28;20030;-78
2023/01/31 11:12:03;;;;;;;5.50;1.98;;;6.30;51.50;;;;;;4974930;28;20034;-77
2023/01/31 11:14:30;;;;;;;7.25;2.90;;;6.60;50.20;;;;;;4957783;28;20019;-77
2023/01/31 11:17:04;;;;;;;9.98;2.65;;;6.80;49.40;;;;;;4957613;28;20152;-77
2023/01/31 11:19:38;;;;;;;7.53;2.20;;;6.80;49.80;;;;;;4957567;28;20118;-77
2023/01/31 11:22:07;;;;;;;8.00;2.05;;;6.80;48.20;;;;;;4957310;28;20027;-77
2023/01/31 11:24:36;;;;;;;12.07;2.97;;;7.10;48.80;;;;;;4957011;28;20031;-76
2023/01/31 11:27:08;;;;;;;8.07;2.20;;;7.30;47.90;;;;;;4955679;28;20113;-76
2023/01/31 11:29:47;;;;;;;13.45;2.50;;;7.30;47.80;;;;;;4976062;28;20581;-76
2023/01/31 11:32:26;;;;;;;10.80;2.63;;;6.90;49.50;;;;;;4976629;28;20112;-76
2023/01/31 11:35:15;;;;;;;10.75;2.50;;;7.00;49.70;;;;;;4976122;28;20161;-77
2023/01/31 11:37:59;;;;;;;15.32;3.13;;;6.90;50.20;;;;;;4976661;28;20031;-76
2023/01/31 11:40:29;;;;;;;11.23;3.08;;;6.90;50.10;;;;;;4976289;28;20054;-77
2023/01/31 11:43:20;;;;;;;9.93;3.05;;;6.80;50.90;;;;;;4976236;28;20026;-77
2023/01/31 11:45:55;;;;;;;8.98;3.55;;;7.30;50.50;;;;;;4993236;28;20034;-77
2023/01/31 11:48:41;;;;;;;9.18;2.97;;;7.60;49.00;;;;;;4976120;28;20029;-76
2023/01/31 11:51:08;;;;;;;;;;;7.80;49.50;;;;;;4975870;28;20034;-77
2023/01/31 11:53:48;;;;;;;9.77;3.28;;;7.40;49.30;;;;;;4975136;28;19906;-77
2023/01/31 11:56:33;;;;;;;10.20;3.15;;;7.40;49.40;;;;;;4976095;28;20292;-77
2023/01/31 11:59:04;;;;;;;16.95;4.43;;;7.50;49.40;;;;;;4975156;28;20045;-77
2023/01/31 12:01:32;;;;;;;13.55;3.30;;;7.50;49.30;;;;;;4975593;28;20029;-76
2023/01/31 12:04:04;;;;;;;10.82;3.15;;;7.30;49.90;;;;;;4975094;28;20033;-78
2023/01/31 12:06:36;;;;;;;14.88;3.67;;;7.60;49.50;;;;;;4975318;28;20038;-78
2023/01/31 12:09:20;;;;;;;9.88;2.95;;;8.00;48.20;;;;;;4975898;28;20079;-78
2023/01/31 12:11:58;;;;;;;9.07;3.13;;;8.00;48.80;;;;;;4975823;28;20037;-77
2023/01/31 12:14:37;;;;;;;9.07;2.90;;;7.80;48.20;;;;;;4975687;28;20030;-77
2023/01/31 12:17:03;;;;;;;7.80;3.13;;;7.50;48.80;;;;;;4993607;28;20058;-80
2023/01/31 12:19:47;;;;;;;9.23;3.25;;;7.10;50.00;;;;;;4975637;28;20506;-79
2023/01/31 12:22:45;;;;;;;14.75;3.85;;;6.90;51.20;;;;;;4975651;28;20533;-78
2023/01/31 12:25:27;;;;;;;8.50;3.53;;;6.90;51.40;;;;;;4943836;28;20049;-78
2023/01/31 12:28:17;;;;;;;13.07;3.13;;;6.90;51.50;;;;;;4976304;28;20045;-79
2023/01/31 12:30:55;;;;;;;9.32;3.25;;;6.40;52.60;;;;;;4976078;28;20072;-78
2023/01/31 12:34:15;;;;;;;13.13;3.88;;;6.10;53.50;;;;;;4976276;28;20019;-78
2023/01/31 12:37:18;;;;;;;10.75;3.55;;;6.10;54.00;;;;;;4982564;28;20034;-78
2023/01/31 12:39:59;;;;;;;6.40;2.72;;;6.20;54.40;;;;;;4977920;28;20049;-78
2023/01/31 12:42:31;;;;;;;6.85;2.65;;;6.40;53.00;;;;;;4975697;28;20537;-76
2023/01/31 12:45:10;;;;;;;10.32;3.00;;;6.70;52.40;;;;;;4975754;28;20037;-77
2023/01/31 12:48:09;;;;;;;9.15;3.53;;;6.90;51.50;;;;;;4975836;28;20031;-76
2023/01/31 12:50:55;;;;;;;7.10;3.00;;;6.60;52.10;;;;;;4976109;28;20029;-77
2023/01/31 12:53:29;;;;;;;13.73;3.70;;;6.50;52.90;;;;;;4993327;28;20534;-75
2023/01/31 12:56:23;;;;;;;9.63;3.08;;;6.50;53.90;;;;;;4975963;28;20117;-77
2023/01/31 12:58:56;;;;;;;9.90;2.65;;;6.30;55.80;;;;;;4975703;28;20034;-76
2023/01/31 13:01:48;;;;;;;8.98;2.65;;;6.40;54.70;;;;;;4993061;28;20505;-76
2023/01/31 13:04:35;;;;;;;9.02;2.15;;;6.20;53.10;;;;;;4993136;28;20113;-76
2023/01/31 13:07:20;;;;;;;8.05;1.95;;;6.00;53.70;;;;;;4975766;28;20440;-77
2023/01/31 13:09:49;;;;;;;4.20;1.83;;;6.00;53.00;;;;;;4960363;28;20070;-76
2023/01/31 13:12:19;;;;;;;6.95;1.58;;;5.80;52.40;;;;;;4975401;28;20034;-76
2023/01/31 13:14:54;;;;;;;13.02;2.17;;;5.70;52.40;;;;;;4975854;28;20125;-77
2023/01/31 13:17:24;;;;;;;5.38;1.88;;;5.50;53.20;;;;;;4979526;28;20026;-77